Time;durP1;ratioP1;P1;durP2;ratioP2;P2;SDS_P1;SDS_P2;PMS_P1;PMS_P2;Temp;Humidity;BMP_temperature;BMP_pressure;BME280_temperature;BME280_humidity;BME280_pressure;Samples;Min_cycle;Max_cycle;Signal;HPM_P1;HPM_P2
2024/03/11 00:02:56;;;;;;;18.67;13.93;;;;;;;8.30;100.00;100113.50;7726968;23;20215;-69
2024/03/11 00:06:16;;;;;;;16.67;14.90;;;;;;;8.25;100.00;100100.50;7732909;23;20471;-69
2024/03/11 00:09:44;;;;;;;19.70;16.03;;;;;;;8.22;100.00;100103.41;7741094;23;20611;-69
2024/03/11 00:13:09;;;;;;;20.90;14.43;;;;;;;8.23;100.00;100106.94;7736109;22;20211;-69
2024/03/11 00:16:30;;;;;;;19.97;14.23;;;;;;;8.16;100.00;100108.50;7692861;23;20278;-69
2024/03/11 00:19:51;;;;;;;15.47;13.80;;;;;;;8.15;100.00;100115.72;7738004;23;20306;-69
2024/03/11 00:23:12;;;;;;;19.47;13.60;;;;;;;8.18;100.00;100119.97;7739988;23;20219;-68
2024/03/11 00:26:35;;;;;;;15.93;13.53;;;;;;;8.21;100.00;100119.66;7732931;23;20429;-68
2024/03/11 00:29:56;;;;;;;15.00;13.33;;;;;;;8.14;100.00;100122.06;7747910;23;20219;-69
2024/03/11 00:33:17;;;;;;;18.80;14.57;;;;;;;8.08;100.00;100128.84;7738763;23;20298;-69
2024/03/11 00:36:38;;;;;;;14.40;12.73;;;;;;;8.12;100.00;100124.03;7735700;23;20215;-69
2024/03/11 00:39:59;;;;;;;19.10;13.70;;;;;;;8.04;100.00;100132.78;7734271;23;20562;-69
2024/03/11 00:43:22;;;;;;;16.67;14.83;;;;;;;8.07;100.00;100120.94;7743369;23;20207;-69
2024/03/11 00:46:46;;;;;;;17.27;15.30;;;;;;;8.08;100.00;100122.63;7732356;23;20533;-69
2024/03/11 00:50:08;;;;;;;18.77;13.80;;;;;;;8.09;100.00;100122.47;7733927;23;20290;-69
2024/03/11 00:53:28;;;;;;;19.87;14.33;;;;;;;8.02;100.00;100117.81;7742052;23;20215;-69
2024/03/11 00:56:50;;;;;;;16.03;13.73;;;;;;;8.00;100.00;100117.94;7735859;23;20215;-69
2024/03/11 01:00:14;;;;;;;15.47;13.73;;;;;;;7.98;100.00;100111.03;7728472;23;20470;-68
2024/03/11 01:03:35;;;;;;;18.73;14.27;;;;;;;8.00;100.00;100125.16;7737070;23;20554;-69
2024/03/11 01:06:56;;;;;;;17.13;14.07;;;;;;;7.96;100.00;100110.31;7731591;23;20211;-69
2024/03/11 01:10:18;;;;;;;18.40;14.77;;;;;;;8.01;100.00;100114.25;7736164;23;20236;-68
2024/03/11 01:13:38;;;;;;;18.43;13.30;;;;;;;8.05;100.00;100115.69;7742159;23;20279;-68
2024/03/11 01:17:01;;;;;;;14.40;12.90;;;;;;;8.08;100.00;100115.41;7731178;23;20672;-69
2024/03/11 01:20:24;;;;;;;16.17;13.77;;;;;;;8.13;100.00;100115.00;7735375;23;20215;-69
2024/03/11 01:23:45;;;;;;;18.57;13.57;;;;;;;8.00;100.00;100109.91;7720112;23;20453;-69
2024/03/11 01:27:10;;;;;;;18.30;13.50;;;;;;;8.08;100.00;100111.88;7736124;23;20685;-69
2024/03/11 01:30:33;;;;;;;20.47;14.17;;;;;;;8.08;100.00;100112.75;7729805;23;20215;-69
2024/03/11 01:33:57;;;;;;;15.40;12.87;;;;;;;8.05;100.00;100104.94;7740136;23;20223;-68
2024/03/11 01:37:17;;;;;;;15.00;13.33;;;;;;;8.02;100.00;100109.75;7730722;23;20220;-69
2024/03/11 01:40:38;;;;;;;13.53;12.07;;;;;;;8.12;100.00;100107.94;7732427;23;20211;-69
2024/03/11 01:44:00;;;;;;;19.10;13.27;;;;;;;8.08;100.00;100104.69;7739857;23;20219;-68
2024/03/11 01:47:24;;;;;;;16.73;14.73;;;;;;;8.13;100.00;100109.63;7734244;23;20207;-68
2024/03/11 01:50:47;;;;;;;14.97;13.10;;;;;;;8.04;100.00;100103.28;7726462;23;20270;-68
2024/03/11 01:54:10;;;;;;;16.67;14.27;;;;;;;8.07;100.00;100100.28;7740813;23;20211;-68
2024/03/11 01:57:33;;;;;;;18.60;13.27;;;;;;;8.07;100.00;100089.56;7730798;23;20208;-68
2024/03/11 02:00:57;;;;;;;20.37;13.43;;;;;;;8.00;100.00;100085.75;7729627;23;20215;-68
2024/03/11 02:04:19;;;;;;;16.33;14.10;;;;;;;7.92;100.00;100085.59;7739096;23;20247;-69
2024/03/11 02:07:42;;;;;;;18.40;14.20;;;;;;;7.95;100.00;100088.00;7729329;23;20238;-68
2024/03/11 02:11:03;;;;;;;19.80;12.83;;;;;;;7.93;100.00;100079.22;7719686;23;20214;-68
2024/03/11 02:14:27;;;;;;;14.43;12.93;;;;;;;7.90;100.00;100086.72;7740913;23;20211;-69
2024/03/11 02:17:48;;;;;;;19.13;14.50;;;;;;;7.91;100.00;100085.72;7728698;23;20328;-69
2024/03/11 02:21:09;;;;;;;14.07;12.23;;;;;;;7.96;100.00;100070.06;7732686;23;20238;-69
2024/03/11 02:24:31;;;;;;;20.30;14.27;;;;;;;7.96;100.00;100068.22;7738989;23;20214;-67
2024/03/11 02:27:52;;;;;;;15.37;12.60;;;;;;;7.88;100.00;100065.41;7732232;23;20237;-68
2024/03/11 02:31:13;;;;;;;15.57;12.40;;;;;;;7.90;100.00;100054.53;7731882;23;20211;-69
2024/03/11 02:34:34;;;;;;;16.57;13.13;;;;;;;7.82;100.00;100060.56;7723550;23;20219;-68
2024/03/11 02:37:55;;;;;;;16.50;13.43;;;;;;;7.85;100.00;100060.28;7725560;23;20215;-69
2024/03/11 02:41:17;;;;;;;18.40;12.50;;;;;;;7.77;100.00;100057.47;7733519;23;20214;-70
2024/03/11 02:44:38;;;;;;;17.60;14.60;;;;;;;7.74;100.00;100057.72;7741057;23;20207;-68
2024/03/11 02:48:00;;;;;;;15.83;12.37;;;;;;;7.71;100.00;100057.16;7729031;23;20215;-68
2024/03/11 02:51:21;;;;;;;16.07;11.90;;;;;;;7.76;100.00;100055.75;7731716;23;20252;-69
2024/03/11 02:54:42;;;;;;;18.53;13.03;;;;;;;7.76;100.00;100055.75;7739713;23;20215;-69
2024/03/11 02:58:04;;;;;;;15.57;12.37;;;;;;;7.70;100.00;100061.69;7728234;23;20223;-67
2024/03/11 03:01:25;;;;;;;16.87;12.87;;;;;;;7.72;100.00;100061.53;7724358;23;20242;-69
2024/03/11 03:04:46;;;;;;;17.03;13.90;;;;;;;7.73;100.00;100055.19;7738564;23;20269;-68
2024/03/11 03:08:07;;;;;;;16.73;14.13;;;;;;;7.83;100.00;100066.78;7734136;23;20314;-69
2024/03/11 03:11:29;;;;;;;15.53;13.67;;;;;;;7.84;100.00;100065.81;7730087;23;20314;-68
2024/03/11 03:14:51;;;;;;;14.03;11.13;;;;;;;7.82;100.00;100062.41;7741285;23;20230;-69
2024/03/11 03:18:11;;;;;;;16.97;13.60;;;;;;;7.82;100.00;100071.28;7713715;23;20218;-68
2024/03/11 03:21:32;;;;;;;23.20;13.83;;;;;;;7.84;100.00;100066.63;7734442;23;20203;-69
2024/03/11 03:24:53;;;;;;;20.10;12.93;;;;;;;7.92;100.00;100065.97;7738143;23;20937;-69
2024/03/11 03:28:14;;;;;;;14.77;12.13;;;;;;;7.92;100.00;100074.00;7738254;23;20313;-68
2024/03/11 03:31:37;;;;;;;16.83;13.80;;;;;;;7.94;100.00;100074.72;7728447;23;20215;-68
2024/03/11 03:34:58;;;;;;;18.63;12.70;;;;;;;7.96;100.00;100078.09;7739817;23;20211;-69
2024/03/11 03:38:18;;;;;;;17.37;12.00;;;;;;;7.97;100.00;100063.69;7736964;23;20461;-68
2024/03/11 03:41:39;;;;;;;15.00;12.80;;;;;;;7.95;100.00;100071.88;7727934;23;20714;-69
2024/03/11 03:45:00;;;;;;;13.40;11.03;;;;;;;8.00;100.00;100068.78;7740802;23;20214;-68
2024/03/11 03:48:22;;;;;;;14.53;13.10;;;;;;;8.05;100.00;100072.75;7735457;23;20223;-68
2024/03/11 03:51:46;;;;;;;16.43;13.10;;;;;;;7.96;100.00;100065.53;7716819;23;20214;-69
2024/03/11 03:55:11;;;;;;;12.43;11.13;;;;;;;7.98;100.00;100058.19;7717378;23;20235;-67
2024/03/11 03:58:36;;;;;;;18.57;12.97;;;;;;;7.96;100.00;100046.75;7719814;23;20298;-70
2024/03/11 04:01:57;;;;;;;20.50;14.87;;;;;;;7.94;100.00;100035.31;7699598;23;20375;-68
2024/03/11 04:05:21;;;;;;;17.37;15.07;;;;;;;7.84;100.00;100033.63;7730747;23;20565;-68
2024/03/11 04:08:42;;;;;;;17.87;13.40;;;;;;;7.84;100.00;100030.94;7706005;23;20207;-68
2024/03/11 04:12:03;;;;;;;14.63;13.13;;;;;;;7.83;100.00;100034.59;7713271;23;20211;-69
2024/03/11 04:15:24;;;;;;;14.87;13.07;;;;;;;7.81;100.00;100034.72;7725178;23;21187;-69
2024/03/11 04:18:49;;;;;;;15.70;14.20;;;;;;;7.82;100.00;100046.31;7710826;23;20211;-69
2024/03/11 04:22:19;;;;;;;14.90;13.47;;;;;;;7.89;100.00;100036.72;7699422;23;20241;-69
2024/03/11 04:25:43;;;;;;;18.77;13.33;;;;;;;7.88;100.00;100048.44;7701844;23;20207;-68
2024/03/11 04:29:06;;;;;;;16.27;13.07;;;;;;;7.83;100.00;100040.81;7719697;23;20235;-70
2024/03/11 04:32:33;;;;;;;14.63;13.07;;;;;;;7.93;100.00;100052.41;7577952;23;20321;-69
2024/03/11 04:35:59;;;;;;;16.60;11.63;;;;;;;7.91;100.00;100058.88;7697480;23;20219;-70
2024/03/11 04:39:29;;;;;;;15.83;12.53;;;;;;;7.94;100.00;100058.63;7719362;23;20326;-68
2024/03/11 04:42:53;;;;;;;15.93;12.73;;;;;;;7.92;100.00;100069.50;7732842;23;20214;-68
2024/03/11 04:46:19;;;;;;;20.53;15.00;;;;;;;7.99;100.00;100069.75;7675726;23;20566;-68
2024/03/11 04:49:41;;;;;;;17.30;15.43;;;;;;;7.97;100.00;100066.38;7736151;23;20207;-68
2024/03/11 04:53:04;;;;;;;16.57;14.90;;;;;;;8.04;100.00;100071.06;7733107;23;20838;-68
2024/03/11 04:56:28;;;;;;;14.13;12.63;;;;;;;8.01;100.00;100071.31;7729184;23;20223;-69
2024/03/11 04:59:49;;;;;;;14.87;10.73;;;;;;;7.98;100.00;100073.44;7739182;23;20207;-69
2024/03/11 05:03:12;;;;;;;15.93;12.40;;;;;;;7.97;100.00;100069.06;7735766;23;20211;-68
2024/03/11 05:06:33;;;;;;;16.70;12.77;;;;;;;8.00;100.00;100074.16;7732223;23;20218;-68
2024/03/11 05:09:54;;;;;;;18.03;13.63;;;;;;;7.97;100.00;100069.91;7747601;23;20239;-68
2024/03/11 05:13:16;;;;;;;14.33;12.87;;;;;;;7.99;100.00;100067.94;7740532;22;20553;-68
2024/03/11 05:16:38;;;;;;;26.30;15.20;;;;;;;8.01;100.00;100067.78;7730078;23;20214;-68
2024/03/11 05:19:59;;;;;;;14.53;12.97;;;;;;;7.89;100.00;100067.09;7739981;23;20210;-68
2024/03/11 05:23:20;;;;;;;16.60;13.10;;;;;;;7.89;100.00;100072.44;7740796;23;20282;-69
2024/03/11 05:26:41;;;;;;;14.63;13.07;;;;;;;7.91;100.00;100069.63;7732856;23;20306;-69
2024/03/11 05:30:06;;;;;;;19.60;13.47;;;;;;;7.84;100.00;100069.31;7739188;23;20219;-68
2024/03/11 05:33:29;;;;;;;16.33;13.90;;;;;;;7.90;100.00;100075.97;7733797;23;20228;-68
2024/03/11 05:36:50;;;;;;;18.03;14.60;;;;;;;7.89;100.00;100083.19;7733094;23;20215;-68
2024/03/11 05:40:12;;;;;;;16.17;11.97;;;;;;;7.97;100.00;100079.78;7737519;23;20211;-68
2024/03/11 05:43:33;;;;;;;17.87;13.60;;;;;;;8.00;100.00;100091.13;7740605;23;20211;-68
2024/03/11 05:46:56;;;;;;;13.53;11.93;;;;;;;8.01;100.00;100100.00;7733749;23;20246;-68
2024/03/11 05:50:20;;;;;;;13.63;12.23;;;;;;;7.99;100.00;100096.59;7733946;23;20215;-67
2024/03/11 05:53:41;;;;;;;16.47;13.67;;;;;;;8.02;100.00;100090.97;7738666;23;20248;-67
2024/03/11 05:57:04;;;;;;;16.40;12.47;;;;;;;7.99;100.00;100100.13;7729303;23;20215;-68
2024/03/11 06:00:25;;;;;;;16.73;13.83;;;;;;;8.00;100.00;100111.72;7727293;23;20285;-67
2024/03/11 06:03:49;;;;;;;13.77;11.67;;;;;;;8.07;100.00;100104.84;7736910;23;20498;-68
2024/03/11 06:07:10;;;;;;;16.60;12.20;;;;;;;8.03;100.00;100111.47;7732760;23;20545;-69
2024/03/11 06:10:31;;;;;;;14.07;11.67;;;;;;;7.83;100.00;100104.34;7727473;23;20214;-67
2024/03/11 06:13:51;;;;;;;17.40;12.67;;;;;;;7.99;100.00;100107.34;7737389;23;20292;-68
2024/03/11 06:17:12;;;;;;;13.70;12.27;;;;;;;8.03;100.00;100117.66;7727058;23;20215;-68
2024/03/11 06:20:34;;;;;;;16.77;13.00;;;;;;;8.09;100.00;100102.84;7685466;23;20211;-67
2024/03/11 06:23:57;;;;;;;11.90;9.40;;;;;;;9.17;100.00;100101.66;7736848;23;20242;-68
2024/03/11 06:27:18;;;;;;;13.23;11.27;;;;;;;9.95;100.00;100106.53;7728463;23;20214;-68
2024/03/11 06:30:43;;;;;;;18.77;12.43;;;;;;;9.72;100.00;100114.16;7731188;23;20265;-66
2024/03/11 06:34:04;;;;;;;14.07;11.90;;;;;;;8.87;100.00;100108.06;7692586;23;20219;-66
2024/03/11 06:37:26;;;;;;;14.53;11.27;;;;;;;8.51;100.00;100104.28;7726746;23;20211;-66
2024/03/11 06:40:48;;;;;;;14.90;12.67;;;;;;;8.35;100.00;100111.22;7733214;23;20295;-68
2024/03/11 06:44:09;;;;;;;17.80;11.90;;;;;;;8.28;100.00;100099.38;7734334;23;20215;-68
2024/03/11 06:47:30;;;;;;;14.83;12.47;;;;;;;8.36;100.00;100113.78;7724860;23;20211;-66
2024/03/11 06:50:51;;;;;;;14.43;11.87;;;;;;;8.39;100.00;100116.19;7727763;23;20211;-68
2024/03/11 06:54:13;;;;;;;16.97;14.27;;;;;;;8.40;100.00;100112.53;7733788;23;20219;-67
2024/03/11 06:57:34;;;;;;;18.97;15.30;;;;;;;8.43;100.00;100111.38;7734213;23;20215;-68
2024/03/11 07:00:58;;;;;;;16.93;13.90;;;;;;;8.42;100.00;100098.94;7704749;23;20624;-68
2024/03/11 07:04:20;;;;;;;13.73;11.47;;;;;;;8.44;100.00;100105.00;7735340;23;20219;-68
2024/03/11 07:07:43;;;;;;;15.47;12.33;;;;;;;8.41;100.00;100106.13;7722419;23;20219;-68
2024/03/11 07:11:05;;;;;;;14.90;12.63;;;;;;;8.35;100.00;100114.75;7729860;23;20219;-68
2024/03/11 07:14:29;;;;;;;14.60;12.27;;;;;;;8.34;100.00;100117.59;7740388;23;20207;-67
2024/03/11 07:17:50;;;;;;;14.33;12.83;;;;;;;8.45;100.00;100109.41;7720245;23;20617;-66
2024/03/11 07:21:11;;;;;;;22.63;13.23;;;;;;;8.47;100.00;100110.13;7728910;23;20299;-67
2024/03/11 07:24:32;;;;;;;16.07;13.50;;;;;;;8.50;100.00;100113.38;7736680;23;20211;-68
2024/03/11 07:27:54;;;;;;;16.73;12.23;;;;;;;8.43;100.00;100119.41;7730388;23;20227;-67
2024/03/11 07:31:16;;;;;;;15.10;13.00;;;;;;;8.45;100.00;100125.53;7730855;23;20219;-68
2024/03/11 07:34:39;;;;;;;14.00;11.00;;;;;;;8.43;100.00;100127.47;7735046;23;20313;-69
2024/03/11 07:38:00;;;;;;;16.00;13.20;;;;;;;8.55;100.00;100127.19;7726189;23;20211;-65
2024/03/11 07:41:24;;;;;;;17.97;13.43;;;;;;;8.57;100.00;100125.22;7728380;23;20552;-66
2024/03/11 07:44:47;;;;;;;20.67;12.63;;;;;;;8.62;100.00;100131.03;7741190;23;20221;-66
2024/03/11 07:48:10;;;;;;;13.30;11.13;;;;;;;8.49;100.00;100135.81;7736518;23;20218;-68
2024/03/11 07:51:30;;;;;;;18.17;11.17;;;;;;;8.49;100.00;100148.44;7731283;23;20286;-68
2024/03/11 07:54:51;;;;;;;13.70;9.93;;;;;;;8.51;100.00;100141.91;7713830;23;20273;-69
2024/03/11 07:58:12;;;;;;;12.80;10.53;;;;;;;8.50;100.00;100147.41;7731198;23;20234;-69
2024/03/11 08:01:34;;;;;;;11.37;10.20;;;;;;;8.60;100.00;100153.63;7717119;23;20215;-70
2024/03/11 08:04:55;;;;;;;16.57;13.97;;;;;;;8.58;100.00;100151.09;7707184;23;20215;-69
2024/03/11 08:08:17;;;;;;;14.27;12.07;;;;;;;8.53;100.00;100156.03;7736315;23;20215;-66
2024/03/11 08:11:39;;;;;;;12.87;11.33;;;;;;;8.79;100.00;100154.50;7733254;23;20241;-67
2024/03/11 08:15:02;;;;;;;15.20;11.00;;;;;;;8.83;100.00;100155.06;7731261;23;20227;-67
2024/03/11 08:18:25;;;;;;;16.67;13.13;;;;;;;8.91;100.00;100163.25;7737715;23;20211;-67
2024/03/11 08:21:47;;;;;;;12.70;10.50;;;;;;;8.88;100.00;100168.06;7727951;23;20218;-67
2024/03/11 08:25:08;;;;;;;12.33;11.00;;;;;;;8.82;100.00;100170.31;7734149;23;20219;-70
2024/03/11 08:28:30;;;;;;;15.67;11.87;;;;;;;8.79;100.00;100177.81;7736370;23;20571;-68
2024/03/11 08:31:51;;;;;;;16.73;11.93;;;;;;;8.88;100.00;100181.50;7719782;23;20239;-68
2024/03/11 08:35:14;;;;;;;16.17;12.33;;;;;;;8.79;100.00;100192.13;7734607;23;20211;-67
2024/03/11 08:38:36;;;;;;;16.80;11.73;;;;;;;8.86;100.00;100181.66;7738084;23;20211;-68
2024/03/11 08:41:57;;;;;;;14.77;11.40;;;;;;;8.83;100.00;100201.59;7731495;23;20218;-69
2024/03/11 08:45:19;;;;;;;15.37;12.83;;;;;;;8.87;100.00;100204.84;7731963;23;20222;-68
2024/03/11 08:48:41;;;;;;;13.97;12.57;;;;;;;8.79;100.00;100208.25;7731917;23;20219;-68
2024/03/11 08:52:06;;;;;;;16.80;12.33;;;;;;;8.63;100.00;100216.03;7728846;23;20282;-68
2024/03/11 08:55:26;;;;;;;14.93;12.10;;;;;;;8.88;100.00;100216.44;7726818;23;20211;-68
2024/03/11 08:58:50;;;;;;;23.60;21.20;;;;;;;8.95;100.00;100212.22;7736147;23;20223;-67
2024/03/11 09:02:14;;;;;;;23.37;15.50;;;;;;;8.96;100.00;100206.69;7720729;23;20212;-67
2024/03/11 09:05:35;;;;;;;16.80;12.63;;;;;;;8.91;100.00;100213.47;7728180;23;20573;-66
2024/03/11 09:08:57;;;;;;;14.03;11.97;;;;;;;8.96;100.00;100214.75;7740841;23;20219;-68
2024/03/11 09:12:21;;;;;;;15.03;12.53;;;;;;;8.96;100.00;100221.94;7732063;23;20569;-68
2024/03/11 09:15:44;;;;;;;12.33;11.00;;;;;;;9.09;100.00;100226.06;7725051;23;20569;-68
2024/03/11 09:19:05;;;;;;;14.60;11.87;;;;;;;9.12;100.00;100217.69;7738741;23;20219;-70
2024/03/11 09:22:26;;;;;;;14.33;12.03;;;;;;;9.03;100.00;100213.19;7730519;23;20274;-69
2024/03/11 09:25:49;;;;;;;13.93;11.37;;;;;;;9.13;100.00;100216.72;7719796;23;20211;-67
2024/03/11 09:29:11;;;;;;;14.93;12.37;;;;;;;9.27;100.00;100218.09;7737394;23;20215;-69
2024/03/11 09:32:32;;;;;;;13.07;11.70;;;;;;;9.33;100.00;100212.13;7701680;23;20815;-71
2024/03/11 09:35:53;;;;;;;14.93;12.57;;;;;;;9.54;100.00;100205.59;7730387;23;20224;-71
2024/03/11 09:39:15;;;;;;;16.27;11.83;;;;;;;9.67;100.00;100205.25;7738303;23;20211;-71
2024/03/11 09:42:38;;;;;;;16.43;12.37;;;;;;;9.79;100.00;100212.16;7708711;23;20203;-71
2024/03/11 09:45:59;;;;;;;12.20;10.50;;;;;;;9.79;100.00;100217.53;7723352;23;20215;-71
2024/03/11 09:49:23;;;;;;;14.13;11.90;;;;;;;9.73;100.00;100223.50;7741902;23;20211;-71
2024/03/11 09:52:47;;;;;;;14.73;13.30;;;;;;;9.77;100.00;100219.53;7746578;23;20271;-71
2024/03/11 09:56:09;;;;;;;15.47;11.93;;;;;;;9.55;100.00;100241.41;7727766;23;20218;-71
2024/03/11 09:59:32;;;;;;;18.90;12.87;;;;;;;9.42;100.00;100239.03;7743116;23;20215;-70
2024/03/11 10:03:00;;;;;;;14.70;12.07;;;;;;;9.57;100.00;100229.50;7721104;23;20290;-70
2024/03/11 10:06:21;;;;;;;14.53;11.70;;;;;;;9.56;100.00;100235.03;7729834;23;20207;-70
2024/03/11 10:09:45;;;;;;;15.07;13.47;;;;;;;9.67;100.00;100229.47;7719389;23;20206;-70
2024/03/11 10:13:06;;;;;;;17.37;12.10;;;;;;;9.67;100.00;100234.88;7738299;22;20223;-70
2024/03/11 10:16:30;;;;;;;14.57;11.37;;;;;;;9.64;100.00;100238.69;7714032;23;20219;-70
2024/03/11 10:19:54;;;;;;;14.40;11.73;;;;;;;9.43;100.00;100239.88;7743507;23;20211;-71
2024/03/11 10:23:18;;;;;;;18.73;12.83;;;;;;;9.51;100.00;100240.84;7736730;23;20497;-70
2024/03/11 10:26:41;;;;;;;15.60;13.17;;;;;;;9.43;100.00;100237.19;7735225;23;20206;-70
2024/03/11 10:30:20;;;;;;;13.97;12.03;;;;;;;9.47;100.00;100246.69;7741519;23;20215;-70
2024/03/11 10:33:42;;;;;;;13.77;12.03;;;;;;;9.49;100.00;100242.81;7737985;23;20207;-70
2024/03/11 10:37:04;;;;;;;13.33;11.90;;;;;;;9.62;100.00;100247.91;7670187;23;20216;-71
2024/03/11 10:40:31;;;;;;;13.60;11.27;;;;;;;9.60;100.00;100244.50;7734761;23;20246;-69
2024/03/11 10:43:57;;;;;;;16.47;12.27;;;;;;;9.75;100.00;100256.50;7740912;23;20693;-71
2024/03/11 10:47:21;;;;;;;18.97;12.87;;;;;;;9.69;100.00;100265.19;7722992;23;20840;-71
2024/03/11 10:50:44;;;;;;;13.77;12.37;;;;;;;9.77;100.00;100269.81;7736907;23;20211;-70
2024/03/11 10:54:05;;;;;;;14.50;11.93;;;;;;;9.61;100.00;100276.69;7738202;23;20219;-70
2024/03/11 10:57:35;;;;;;;14.67;11.80;;;;;;;9.72;100.00;100272.94;7736402;23;20234;-70
2024/03/11 11:01:00;;;;;;;18.40;13.07;;;;;;;9.82;100.00;100272.94;7729408;23;20537;-69
2024/03/11 11:04:28;;;;;;;18.13;12.33;;;;;;;9.84;100.00;100281.72;7739807;23;20211;-71
2024/03/11 11:07:53;;;;;;;15.80;12.57;;;;;;;9.70;100.00;100279.50;7707179;22;20214;-70
2024/03/11 11:11:17;;;;;;;18.23;14.13;;;;;;;9.78;100.00;100284.97;7728425;23;20493;-71
2024/03/11 11:14:40;;;;;;;19.47;13.60;;;;;;;9.79;100.00;100281.28;7736151;23;20286;-69
2024/03/11 11:18:02;;;;;;;30.17;13.07;;;;;;;9.78;100.00;100285.84;7714188;23;20286;-70
2024/03/11 11:21:29;;;;;;;14.20;12.70;;;;;;;9.74;100.00;100288.97;7723211;23;20215;-66
2024/03/11 11:24:51;;;;;;;17.33;14.43;;;;;;;9.87;100.00;100297.56;7739234;23;20293;-67
2024/03/11 11:28:14;;;;;;;14.50;13.00;;;;;;;9.92;100.00;100303.34;7738512;23;20219;-68
2024/03/11 11:31:35;;;;;;;21.57;14.90;;;;;;;9.91;100.00;100299.00;7725417;23;20215;-67
2024/03/11 11:34:56;;;;;;;17.83;14.07;;;;;;;9.91;100.00;100307.88;7734859;23;20211;-65
2024/03/11 11:38:29;;;;;;;14.67;13.17;;;;;;;9.94;100.00;100312.13;7729531;23;20215;-68
2024/03/11 11:41:54;;;;;;;15.73;12.97;;;;;;;9.90;100.00;100314.28;7727750;23;20214;-68
2024/03/11 11:45:50;;;;;;;14.43;12.93;;;;;;;9.84;100.00;100325.63;7730232;23;20249;-68
2024/03/11 11:49:17;;;;;;;19.40;14.83;;;;;;;9.95;100.00;100303.09;7736752;23;20294;-69
2024/03/11 11:52:38;;;;;;;17.80;13.63;;;;;;;10.18;100.00;100302.59;7727217;23;20210;-68
2024/03/11 11:56:00;;;;;;;16.50;13.87;;;;;;;10.29;100.00;100307.78;7734669;23;20302;-68
2024/03/11 11:59:24;;;;;;;19.53;15.23;;;;;;;9.88;100.00;100308.19;7739763;23;20211;-69
2024/03/11 12:02:49;;;;;;;26.10;15.93;;;;;;;9.81;100.00;100311.59;7721192;23;20207;-68
2024/03/11 12:06:23;;;;;;;20.33;14.20;;;;;;;9.91;100.00;100315.13;7733072;23;20215;-68
2024/03/11 12:09:51;;;;;;;22.83;17.00;;;;;;;10.01;100.00;100315.97;7737399;23;20214;-66
2024/03/11 12:13:17;;;;;;;15.93;14.27;;;;;;;9.93;100.00;100319.34;7739817;23;20210;-66
2024/03/11 12:16:40;;;;;;;16.97;13.83;;;;;;;10.02;100.00;100323.88;7733398;23;20207;-69
2024/03/11 12:20:14;;;;;;;18.17;14.53;;;;;;;10.11;100.00;100320.34;7738639;23;20230;-69
2024/03/11 12:23:36;;;;;;;19.07;14.30;;;;;;;10.22;100.00;100314.75;7742564;23;20249;-68
2024/03/11 12:26:58;;;;;;;19.33;17.33;;;;;;;10.33;100.00;100317.28;7734115;23;20214;-69
2024/03/11 12:30:24;;;;;;;22.13;19.03;;;;;;;10.30;100.00;100316.72;7736678;23;20294;-69
2024/03/11 12:33:46;;;;;;;23.73;20.50;;;;;;;10.28;100.00;100322.25;7741249;23;20210;-69
2024/03/11 12:37:09;;;;;;;21.70;16.27;;;;;;;10.23;100.00;100331.78;7735249;23;20442;-70
2024/03/11 12:40:34;;;;;;;19.40;16.37;;;;;;;10.24;100.00;100331.63;7736036;23;20627;-67
2024/03/11 12:43:55;;;;;;;16.40;14.60;;;;;;;10.10;100.00;100331.22;7742609;23;20210;-69
2024/03/11 12:47:20;;;;;;;18.87;16.90;;;;;;;10.27;100.00;100334.03;7733845;23;20210;-69
2024/03/11 12:50:43;;;;;;;17.30;15.43;;;;;;;10.38;100.00;100336.56;7731609;23;20207;-68
2024/03/11 12:54:18;;;;;;;19.07;15.83;;;;;;;10.40;100.00;100341.78;7741837;23;20214;-69
2024/03/11 12:57:39;;;;;;;16.07;13.40;;;;;;;10.53;100.00;100355.78;7734052;23;20214;-70
2024/03/11 13:01:04;;;;;;;18.87;16.07;;;;;;;10.48;100.00;100351.81;7729158;23;20219;-68
2024/03/11 13:04:26;;;;;;;22.00;15.47;;;;;;;10.41;100.00;100349.72;7740928;23;20222;-71
2024/03/11 13:07:49;;;;;;;17.53;15.40;;;;;;;10.41;100.00;100362.31;7736293;23;20562;-71
2024/03/11 13:11:10;;;;;;;18.83;16.83;;;;;;;10.65;100.00;100361.81;7735328;22;20215;-71
2024/03/11 13:14:32;;;;;;;19.93;16.27;;;;;;;10.73;100.00;100351.13;7707934;23;20219;-71
2024/03/11 13:17:56;;;;;;;16.80;15.10;;;;;;;10.90;100.00;100358.41;7697414;23;20302;-69
2024/03/11 13:21:19;;;;;;;20.17;17.93;;;;;;;10.81;100.00;100365.56;7695782;23;20228;-68
2024/03/11 13:24:43;;;;;;;19.97;18.00;;;;;;;10.73;100.00;100370.00;7701220;23;20215;-68
2024/03/11 13:28:06;;;;;;;19.53;17.43;;;;;;;10.79;100.00;100377.47;7701339;23;20242;-68
2024/03/11 13:31:27;;;;;;;22.67;16.07;;;;;;;10.62;100.00;100375.59;7690102;23;20454;-68
2024/03/11 13:34:49;;;;;;;19.33;16.87;;;;;;;10.63;100.00;100386.22;7701536;23;20216;-68
2024/03/11 13:38:11;;;;;;;19.47;16.53;;;;;;;10.68;100.00;100385.78;7699547;23;20208;-68
2024/03/11 13:41:39;;;;;;;18.83;16.93;;;;;;;10.70;100.00;100390.00;7658671;23;20215;-67
2024/03/11 13:45:00;;;;;;;22.17;17.67;;;;;;;10.78;100.00;100386.59;7705504;23;20250;-70
2024/03/11 13:48:24;;;;;;;19.47;16.97;;;;;;;10.81;100.00;100397.91;7698740;23;20216;-66
2024/03/11 13:51:45;;;;;;;19.87;16.37;;;;;;;10.91;100.00;100401.41;7694443;23;20212;-67
2024/03/11 13:55:07;;;;;;;20.00;17.90;;;;;;;10.90;100.00;100397.03;7699112;23;20460;-67
2024/03/11 13:58:30;;;;;;;18.17;16.37;;;;;;;11.19;100.00;100404.94;7702109;23;20298;-69
2024/03/11 14:01:52;;;;;;;19.07;16.83;;;;;;;11.54;100.00;100406.81;7696517;23;20783;-69
2024/03/11 14:05:14;;;;;;;24.50;17.90;;;;;;;12.43;100.00;100397.63;7684845;23;20291;-67
2024/03/11 14:08:35;;;;;;;20.27;16.50;;;;;;;15.00;100.00;100383.47;7703077;23;20941;-68
2024/03/11 14:11:56;;;;;;;17.33;15.50;;;;;;;16.35;100.00;100379.13;7705970;23;20211;-69
2024/03/11 14:15:18;;;;;;;16.43;14.70;;;;;;;17.66;100.00;100375.47;7737465;23;20227;-68
2024/03/11 14:18:39;;;;;;;23.80;16.37;;;;;;;15.61;100.00;100390.81;7735635;23;20211;-68
2024/03/11 14:22:00;;;;;;;24.33;17.23;;;;;;;14.86;100.00;100398.66;7717117;23;20317;-68
2024/03/11 14:25:22;;;;;;;23.40;15.47;;;;;;;14.62;100.00;100400.59;7732403;23;20222;-67
2024/03/11 14:28:46;;;;;;;17.90;16.00;;;;;;;14.03;100.00;100408.09;7743744;23;20215;-68
2024/03/11 14:32:10;;;;;;;20.93;16.20;;;;;;;14.15;100.00;100404.03;7730821;23;20207;-70
2024/03/11 14:35:32;;;;;;;17.27;15.40;;;;;;;13.79;100.00;100408.09;7735335;23;20214;-67
2024/03/11 14:38:53;;;;;;;19.43;15.67;;;;;;;14.03;100.00;100412.69;7740694;23;20211;-68
2024/03/11 14:42:20;;;;;;;17.53;15.63;;;;;;;13.82;100.00;100409.63;7716761;23;20242;-70
2024/03/11 14:45:41;;;;;;;19.20;16.83;;;;;;;13.76;100.00;100413.84;7726290;23;20612;-69
2024/03/11 14:49:03;;;;;;;25.27;17.10;;;;;;;13.47;100.00;100413.47;7739329;23;20215;-68
2024/03/11 14:52:24;;;;;;;19.10;16.30;;;;;;;14.34;100.00;100411.00;7712014;23;20239;-66
2024/03/11 14:55:45;;;;;;;18.97;15.93;;;;;;;16.53;100.00;100417.75;7732111;23;20210;-68
2024/03/11 14:59:06;;;;;;;18.33;15.70;;;;;;;17.24;100.00;100404.31;7740363;23;20207;-68
2024/03/11 15:02:27;;;;;;;21.87;16.57;;;;;;;16.03;100.00;100412.91;7728382;23;20553;-68
2024/03/11 15:05:51;;;;;;;15.20;13.60;;;;;;;13.80;100.00;100419.78;7730509;23;20464;-67
2024/03/11 15:09:17;;;;;;;24.40;19.57;;;;;;;13.20;100.00;100422.72;7739439;23;20211;-69
2024/03/11 15:12:38;;;;;;;23.27;18.73;;;;;;;12.62;100.00;100432.56;7724658;23;20207;-67
2024/03/11 15:16:01;;;;;;;16.13;14.37;;;;;;;12.51;100.00;100438.22;7725038;23;20207;-67
2024/03/11 15:19:22;;;;;;;19.90;16.03;;;;;;;12.21;100.00;100441.38;7739502;22;20245;-68